Time;durP1;ratioP1;P1;durP2;ratioP2;P2;SDS_P1;SDS_P2;PMS_P1;PMS_P2;Temp;Humidity;BMP_temperature;BMP_pressure;BME280_temperature;BME280_humidity;BME280_pressure;Samples;Min_cycle;Max_cycle;Signal;HPM_P1;HPM_P2
2023/11/12 00:02:48;;;;;;;20.80;8.27;;;;;;;5.11;100.00;100363.41;5325897;23;20054;-83
2023/11/12 00:05:14;;;;;;;20.25;8.68;;;;;;;5.17;100.00;100367.75;5189678;23;20103;-82
2023/11/12 00:07:40;;;;;;;;;;;;;;;5.18;100.00;100364.84;5578821;23;20039;-78
2023/11/12 00:10:11;;;;;;;23.40;9.43;;;;;;;5.12;100.00;100359.72;4974165;28;19926;-79
2023/11/12 00:12:41;;;;;;;17.67;9.30;;;;;;;5.13;100.00;100356.00;4953423;29;20039;-82
2023/11/12 00:15:08;;;;;;;17.75;8.38;;;;;;;5.15;100.00;100360.06;4937741;29;20031;-79
2023/11/12 00:17:35;;;;;;;18.58;8.30;;;;;;;5.17;100.00;100363.25;4945905;29;20058;-80
2023/11/12 00:28:50;;;;;;;20.05;9.27;;;;;;;5.20;100.00;100365.41;5854969;23;20021;31
2023/11/12 00:31:21;;;;;;;17.40;7.97;;;;;;;5.16;100.00;100355.53;4921387;28;20034;-81
2023/11/12 00:33:48;;;;;;;;;;;;;;;5.20;100.00;100359.31;5193892;23;20030;-82
2023/11/12 00:36:14;;;;;;;17.02;8.30;;;;;;;5.14;100.00;100352.31;4975652;28;19906;-83
2023/11/12 00:44:32;;;;;;;18.80;9.13;;;;;;;5.17;100.00;100360.59;5020460;23;20059;-78
2023/11/12 00:46:58;;;;;;;17.20;9.35;;;;;;;5.15;100.00;100346.78;5106587;23;21530;-82
2023/11/12 00:49:24;;;;;;;17.33;8.05;;;;;;;5.16;100.00;100339.63;4968644;28;20024;-81
2023/11/12 01:38:04;;;;;;;16.33;7.60;;;;;;;5.33;100.00;100335.06;5517328;23;20150;-81
2023/11/12 01:40:37;;;;;;;19.60;8.27;;;;;;;5.30;100.00;100340.06;4948244;29;20043;-80
2023/11/12 01:43:03;;;;;;;17.92;7.68;;;;;;;5.34;100.00;100341.19;4949381;28;20040;-80
2023/11/12 01:45:29;;;;;;;18.08;8.00;;;;;;;5.30;100.00;100340.88;4928045;29;20056;-80
2023/11/12 01:47:58;;;;;;;17.58;8.18;;;;;;;5.27;100.00;100332.59;4923939;29;20036;-81
2023/11/12 01:50:24;;;;;;;17.92;8.50;;;;;;;5.27;100.00;100332.59;4932887;28;20032;-81
2023/11/12 01:52:52;;;;;;;20.15;8.20;;;;;;;5.29;100.00;100333.97;4951732;28;20495;-82
2023/11/12 01:55:21;;;;;;;20.63;7.82;;;;;;;5.34;100.00;100335.88;4954132;29;20046;-78
2023/11/12 01:57:47;;;;;;;20.13;8.63;;;;;;;5.28;100.00;100329.69;4929347;29;20039;-80
2023/11/12 02:00:16;;;;;;;16.05;8.13;;;;;;;5.28;100.00;100328.88;4938131;28;20047;-81
2023/11/12 02:02:57;;;;;;;17.70;8.93;;;;;;;5.32;100.00;100343.28;5687927;23;20035;-82
2023/11/12 02:05:26;;;;;;;16.83;8.20;;;;;;;5.29;100.00;100336.63;4961138;29;20035;-80
2023/11/12 02:07:56;;;;;;;19.13;9.02;;;;;;;5.29;100.00;100327.84;4948857;28;20095;-83
2023/11/12 02:10:22;;;;;;;22.60;8.70;;;;;;;5.30;100.00;100334.75;4938120;28;20044;-78
2023/11/12 02:12:48;;;;;;;18.63;8.23;;;;;;;5.29;100.00;100323.34;4937424;28;20026;-79
2023/11/12 02:18:07;;;;;;;21.45;8.65;;;;;;;5.33;100.00;100334.25;4928568;29;20051;-80
2023/11/12 02:20:32;;;;;;;20.55;8.90;;;;;;;5.32;100.00;100337.97;4937867;28;20040;-80
2023/11/12 02:22:58;;;;;;;21.42;9.65;;;;;;;5.27;100.00;100327.28;5237139;23;20023;-79
2023/11/12 02:25:25;;;;;;;22.20;8.80;;;;;;;5.29;100.00;100323.34;4961959;28;20043;-82
2023/11/12 02:30:47;;;;;;;24.77;9.60;;;;;;;5.37;100.00;100335.41;5938312;23;20027;-81
2023/11/12 02:54:35;;;;;;;23.45;8.85;;;;;;;5.34;100.00;100331.34;4910891;29;20033;-81
2023/11/12 03:08:59;;;;;;;28.50;9.43;;;;;;;5.44;100.00;100352.75;5727261;23;20051;-81
2023/11/12 03:17:18;;;;;;;28.40;9.07;;;;;;;5.40;100.00;100334.88;5240120;23;20056;-81
2023/11/12 03:34:25;;;;;;;26.67;9.00;;;;;;;5.41;100.00;100320.56;5480796;23;20151;-79
2023/11/12 03:36:51;;;;;;;27.73;8.80;;;;;;;5.43;100.00;100334.41;4941239;28;20437;-79
2023/11/12 03:39:17;;;;;;;34.65;10.55;;;;;;;5.44;100.00;100336.03;4918419;29;20035;-80
2023/11/12 03:41:43;;;;;;;33.47;10.75;;;;;;;5.41;100.00;100331.97;4953181;28;20083;-79
2023/11/12 03:44:09;;;;;;;;;;;;;;;5.46;100.00;100333.91;4932415;29;20047;-80
2023/11/12 03:46:35;;;;;;;28.95;9.38;;;;;;;5.45;100.00;100337.63;4946235;28;20009;-80
2023/11/12 03:49:04;;;;;;;29.65;9.93;;;;;;;5.46;100.00;100340.03;4929123;28;20051;-79
2023/11/12 03:51:32;;;;;;;29.65;9.15;;;;;;;5.48;100.00;100339.78;4938578;28;20059;-80
2023/11/12 03:54:01;;;;;;;31.75;10.52;;;;;;;5.51;100.00;100341.97;4950354;28;20109;-79
2023/11/12 03:56:28;;;;;;;28.95;9.57;;;;;;;5.53;100.00;100350.47;4917767;29;20032;-79
2023/11/12 03:58:56;;;;;;;30.73;9.93;;;;;;;5.53;100.00;100347.81;4922649;28;20039;-79
2023/11/12 04:01:23;;;;;;;34.50;11.50;;;;;;;5.55;100.00;100352.88;4931388;29;20059;-78
2023/11/12 04:03:49;;;;;;;35.30;9.18;;;;;;;5.55;100.00;100351.03;4937486;28;20419;-80
2023/11/12 04:06:19;;;;;;;29.48;9.77;;;;;;;5.56;100.00;100347.34;4926672;28;20508;-78
2023/11/12 04:08:45;;;;;;;29.15;10.30;;;;;;;5.59;100.00;100348.69;4951707;28;20510;-80
2023/11/12 04:11:12;;;;;;;34.83;10.50;;;;;;;5.57;100.00;100345.50;4950235;28;20034;-80
2023/11/12 04:13:37;;;;;;;34.40;10.23;;;;;;;5.60;100.00;100343.13;4967663;28;20134;-79
2023/11/12 04:16:05;;;;;;;32.17;10.38;;;;;;;5.60;100.00;100343.13;4954863;28;20134;-80
2023/11/12 04:18:30;;;;;;;33.13;9.68;;;;;;;5.63;100.00;100342.66;4969149;28;20045;-79
2023/11/12 04:20:58;;;;;;;28.35;9.68;;;;;;;5.68;100.00;100341.88;4949848;28;20118;-79
2023/11/12 04:23:24;;;;;;;35.80;10.43;;;;;;;5.65;100.00;100351.16;4942896;29;20039;-80
2023/11/12 04:25:49;;;;;;;30.10;9.75;;;;;;;5.65;100.00;100353.81;4964252;28;20035;-79
2023/11/12 04:28:15;;;;;;;37.17;11.35;;;;;;;5.63;100.00;100353.28;4937888;28;20047;-79
2023/11/12 04:30:42;;;;;;;32.95;10.98;;;;;;;5.65;100.00;100351.16;4967397;28;20035;-79
2023/11/12 04:33:07;;;;;;;32.67;10.48;;;;;;;5.63;100.00;100355.94;4949706;28;20031;-79
2023/11/12 04:35:33;;;;;;;37.22;10.18;;;;;;;5.66;100.00;100357.28;4964481;28;20038;-79
2023/11/12 04:37:58;;;;;;;30.48;9.85;;;;;;;5.67;100.00;100349.06;4936873;28;20090;-79
2023/11/12 04:40:24;;;;;;;26.15;10.25;;;;;;;5.67;100.00;100354.38;4929775;29;20063;-79
2023/11/12 04:42:50;;;;;;;26.20;8.75;;;;;;;5.72;100.00;100351.00;4919716;29;20054;-79
2023/11/12 04:45:19;;;;;;;24.98;9.25;;;;;;;5.72;100.00;100343.03;4949831;28;20066;-79
2023/11/12 04:47:45;;;;;;;30.00;10.40;;;;;;;5.70;100.00;100343.28;4947527;28;20043;-79
2023/11/12 04:50:11;;;;;;;27.67;9.70;;;;;;;5.73;100.00;100345.41;4945591;28;20049;-79
2023/11/12 04:52:36;;;;;;;29.08;10.60;;;;;;;5.73;100.00;100347.28;4910139;29;20046;-79
2023/11/12 04:55:03;;;;;;;27.50;9.90;;;;;;;5.73;100.00;100345.41;4962748;28;20075;-78
2023/11/12 04:57:29;;;;;;;24.55;10.38;;;;;;;5.74;100.00;100344.38;4955707;28;20117;-79
2023/11/12 04:59:55;;;;;;;26.60;10.23;;;;;;;5.75;100.00;100345.97;4943966;28;20035;-79
2023/11/12 05:02:21;;;;;;;23.48;9.45;;;;;;;5.77;100.00;100350.25;4941354;28;20591;-79
2023/11/12 05:04:47;;;;;;;29.77;10.38;;;;;;;5.80;100.00;100355.06;4959344;28;20546;-78
2023/11/12 05:07:14;;;;;;;25.90;9.85;;;;;;;5.80;100.00;100349.75;4930270;29;20574;-80
2023/11/12 05:09:40;;;;;;;24.15;9.77;;;;;;;5.82;100.00;100355.63;4947964;28;20047;-79
2023/11/12 05:12:06;;;;;;;;;;;;;;;5.83;100.00;100350.06;4946865;28;20039;-78
2023/11/12 05:14:32;;;;;;;22.83;9.75;;;;;;;5.82;100.00;100352.97;4944216;28;19925;-78
2023/11/12 05:16:57;;;;;;;25.23;10.30;;;;;;;5.82;100.00;100352.97;4928097;29;20031;-78
2023/11/12 05:19:23;;;;;;;30.42;11.02;;;;;;;5.84;100.00;100356.19;4933176;28;20046;-79
2023/11/12 05:21:49;;;;;;;26.88;10.52;;;;;;;5.82;100.00;100352.97;4931096;28;20122;-79
2023/11/12 05:24:15;;;;;;;26.27;10.48;;;;;;;5.81;100.00;100354.00;4947646;28;20531;-78
2023/11/12 05:26:41;;;;;;;29.45;11.35;;;;;;;5.82;100.00;100353.75;4945736;28;20035;-79
2023/11/12 05:29:07;;;;;;;;;;;;;;;5.83;100.00;100355.38;4931842;28;20039;-79
2023/11/12 05:31:34;;;;;;;23.27;9.88;;;;;;;5.84;100.00;100357.00;4945519;28;20034;-79
2023/11/12 05:34:00;;;;;;;24.88;10.18;;;;;;;5.86;100.00;100367.38;4945133;28;20039;-78
2023/11/12 05:36:27;;;;;;;25.08;10.85;;;;;;;5.87;100.00;100366.31;4930763;28;20026;-78
2023/11/12 05:38:53;;;;;;;27.20;10.88;;;;;;;5.87;100.00;100369.78;4943090;28;20359;-78
2023/11/12 05:41:19;;;;;;;24.83;10.00;;;;;;;5.89;100.00;100365.03;4944031;28;20057;-79
2023/11/12 05:43:45;;;;;;;21.67;8.90;;;;;;;5.90;100.00;100371.16;4927506;29;20427;-78
2023/11/12 05:46:11;;;;;;;21.30;9.93;;;;;;;5.92;100.00;100377.03;4945094;28;20035;-79
2023/11/12 05:48:36;;;;;;;19.73;9.60;;;;;;;5.93;100.00;100373.34;4940702;28;20053;-79
2023/11/12 05:51:02;;;;;;;23.17;11.05;;;;;;;5.93;100.00;100382.09;4927438;28;20054;-79
2023/11/12 05:53:28;;;;;;;22.70;10.32;;;;;;;5.95;100.00;100379.19;4928605;29;20042;-79
2023/11/12 05:55:54;;;;;;;;;;;;;;;5.95;100.00;100381.84;4946623;28;20038;-78
2023/11/12 05:58:20;;;;;;;23.73;10.65;;;;;;;5.96;100.00;100381.63;4927694;29;20009;-78
2023/11/12 06:00:47;;;;;;;21.58;11.45;;;;;;;5.98;100.00;100386.69;4929450;28;20122;-79
2023/11/12 06:03:12;;;;;;;25.73;11.55;;;;;;;5.98;100.00;100378.72;4945278;28;20046;-79
2023/11/12 06:05:40;;;;;;;22.85;11.48;;;;;;;6.00;100.00;100382.72;4941734;28;20044;-78
2023/11/12 06:08:05;;;;;;;26.95;13.13;;;;;;;6.02;100.00;100390.44;4955781;28;20054;-78
2023/11/12 06:10:32;;;;;;;23.58;11.55;;;;;;;6.02;100.00;100393.09;4946770;28;20034;-79
2023/11/12 06:12:57;;;;;;;27.13;13.05;;;;;;;6.02;100.00;100396.56;4928011;28;20039;-79
2023/11/12 06:15:26;;;;;;;28.23;12.98;;;;;;;6.04;100.00;100395.53;4946070;28;20035;-79
2023/11/12 06:17:55;;;;;;;24.65;12.52;;;;;;;6.04;100.00;100391.03;4926660;29;20497;-78
2023/11/12 06:20:21;;;;;;;22.48;12.00;;;;;;;6.06;100.00;100398.75;4929012;29;20512;-78
2023/11/12 06:22:47;;;;;;;23.77;12.93;;;;;;;6.07;100.00;100400.34;4928315;28;20054;-78
2023/11/12 06:25:12;;;;;;;24.15;12.70;;;;;;;6.07;100.00;100397.69;4929247;29;20046;-78
2023/11/12 06:27:39;;;;;;;19.38;11.55;;;;;;;6.11;100.00;100399.59;4944571;28;20043;-78
2023/11/12 06:30:05;;;;;;;;;;;;;;;6.12;100.00;100403.88;4934796;28;20050;-79
2023/11/12 06:32:31;;;;;;;22.52;11.48;;;;;;;6.13;100.00;100402.00;4928451;29;19919;-79
2023/11/12 06:34:56;;;;;;;21.40;11.73;;;;;;;6.13;100.00;100400.16;4945602;28;20043;-79
2023/11/12 06:37:22;;;;;;;22.15;11.20;;;;;;;6.15;100.00;100405.22;4946188;28;20035;-79
2023/11/12 06:39:48;;;;;;;19.02;11.02;;;;;;;6.14;100.00;100401.75;4930974;28;20035;-78
2023/11/12 06:42:14;;;;;;;19.90;11.50;;;;;;;6.15;100.00;100411.34;4933204;29;20094;-78
2023/11/12 06:44:40;;;;;;;20.75;11.70;;;;;;;6.16;100.00;100404.16;4943093;28;20130;-79
2023/11/12 06:47:05;;;;;;;20.15;11.40;;;;;;;6.16;100.00;100412.94;4948388;28;20062;-79
2023/11/12 06:49:32;;;;;;;20.75;11.65;;;;;;;6.18;100.00;100418.03;4961639;28;20071;-78
2023/11/12 06:51:58;;;;;;;24.25;12.20;;;;;;;6.14;100.00;100404.41;4945354;28;20086;-78
2023/11/12 06:54:24;;;;;;;21.40;11.80;;;;;;;6.18;100.00;100410.06;4947188;28;20770;-78
2023/11/12 06:56:50;;;;;;;16.55;10.77;;;;;;;6.19;100.00;100417.78;4942393;28;20150;-78
2023/11/12 06:59:16;;;;;;;;;;;;;;;6.19;100.00;100419.63;4946052;28;20039;-80
2023/11/12 07:01:42;;;;;;;16.92;9.65;;;;;;;6.21;100.00;100422.84;4944668;28;19972;-80
2023/11/12 07:04:10;;;;;;;13.73;9.07;;;;;;;6.21;100.00;100423.63;4944188;28;20102;-78
2023/11/12 07:06:36;;;;;;;17.77;9.55;;;;;;;6.22;100.00;100427.09;4943809;28;20536;-78
2023/11/12 07:09:02;;;;;;;14.65;9.48;;;;;;;6.23;100.00;100434.03;4947442;28;20068;-78
2023/11/12 07:11:28;;;;;;;20.55;11.48;;;;;;;6.22;100.00;100433.22;4933853;28;20043;-79
2023/11/12 07:13:53;;;;;;;20.40;13.05;;;;;;;6.22;100.00;100443.84;4945369;28;20043;-78
2023/11/12 07:16:20;;;;;;;22.40;13.07;;;;;;;6.20;100.00;100443.31;4947551;28;20125;-77
2023/11/12 07:18:46;;;;;;;22.67;14.25;;;;;;;6.21;100.00;100447.56;4949730;28;20585;-79
2023/11/12 07:21:12;;;;;;;22.25;13.65;;;;;;;6.23;100.00;100447.31;4944890;28;20125;-78
2023/11/12 07:23:38;;;;;;;20.45;13.30;;;;;;;6.24;100.00;100452.41;4911338;29;20128;-77
2023/11/12 07:26:04;;;;;;;25.45;13.32;;;;;;;6.25;100.00;100448.69;4947323;28;20063;-79
2023/11/12 07:28:30;;;;;;;21.98;12.98;;;;;;;6.25;100.00;100447.91;4947167;28;20043;-79
2023/11/12 07:30:56;;;;;;;20.50;13.05;;;;;;;6.26;100.00;100439.66;4947356;28;20493;-80
2023/11/12 07:33:21;;;;;;;22.45;12.70;;;;;;;6.26;100.00;100441.53;4931626;29;20042;-78
2023/11/12 07:35:49;;;;;;;18.60;11.88;;;;;;;6.26;100.00;100438.88;4946069;28;20043;-78
2023/11/12 07:38:15;;;;;;;21.45;13.68;;;;;;;6.26;100.00;100444.97;4946527;28;20483;-80
2023/11/12 07:40:41;;;;;;;21.30;13.18;;;;;;;6.29;100.00;100444.47;4945528;28;20039;-79
2023/11/12 07:43:07;;;;;;;;;;;;;;;6.28;100.00;100440.22;4930678;28;20078;-80
2023/11/12 07:45:33;;;;;;;19.73;13.40;;;;;;;6.29;100.00;100452.44;4940105;28;19973;-79
2023/11/12 07:48:00;;;;;;;22.70;14.05;;;;;;;6.31;100.00;100441.59;4946929;28;20058;-79
2023/11/12 07:50:26;;;;;;;23.17;12.90;;;;;;;6.31;100.00;100443.44;4946134;28;20039;-79
2023/11/12 07:52:51;;;;;;;24.60;14.40;;;;;;;6.32;100.00;100445.06;4931258;28;20051;-78
2023/11/12 07:55:17;;;;;;;24.58;14.05;;;;;;;6.31;100.00;100449.56;4944417;28;20121;-78
2023/11/12 07:57:43;;;;;;;24.88;15.13;;;;;;;6.29;100.00;100447.13;4956865;28;20031;-79
2023/11/12 08:00:13;;;;;;;25.25;15.75;;;;;;;6.32;100.00;100447.72;4927064;29;20043;-79
2023/11/12 08:02:39;;;;;;;22.80;14.80;;;;;;;6.31;100.00;100454.09;4926372;28;20035;-78
2023/11/12 08:05:08;;;;;;;;;;;;;;;6.33;100.00;100450.13;4943864;28;20058;-77
2023/11/12 08:07:35;;;;;;;21.75;13.18;;;;;;;6.35;100.00;100441.88;4942632;28;19954;-80
2023/11/12 08:10:04;;;;;;;29.92;19.90;;;;;;;6.36;100.00;100448.81;4900748;28;20044;-79
2023/11/12 08:12:31;;;;;;;25.23;16.27;;;;;;;6.39;100.00;100458.97;4948831;28;20039;-79
2023/11/12 08:14:57;;;;;;;30.13;18.35;;;;;;;6.40;100.00;100458.72;4933833;28;20039;-79
2023/11/12 08:17:23;;;;;;;29.27;16.80;;;;;;;6.43;100.00;100465.38;4951586;28;20046;-77
2023/11/12 08:19:48;;;;;;;52.10;29.67;;;;;;;6.40;100.00;100457.91;4926293;29;20039;-79
2023/11/12 08:22:14;;;;;;;35.97;21.48;;;;;;;6.42;100.00;100464.56;4930335;28;20520;-78
2023/11/12 08:24:40;;;;;;;33.97;17.90;;;;;;;6.41;100.00;100456.84;4930998;29;20039;-77
2023/11/12 08:27:07;;;;;;;31.63;20.35;;;;;;;6.45;100.00;100464.09;4944687;28;20031;-79
2023/11/12 08:29:34;;;;;;;;;;;;;;;6.46;100.00;100467.56;4947447;28;20038;-79
2023/11/12 08:31:59;;;;;;;31.55;18.80;;;;;;;6.43;100.00;100471.50;4949753;28;19922;-79
2023/11/12 08:34:25;;;;;;;29.20;16.33;;;;;;;6.43;100.00;100474.16;4946507;28;20039;-79
2023/11/12 08:36:50;;;;;;;24.65;15.65;;;;;;;6.38;100.00;100474.13;4948455;28;20090;-78
2023/11/12 08:39:16;;;;;;;25.25;15.52;;;;;;;6.38;100.00;100482.09;4947084;28;20118;-79
2023/11/12 08:41:46;;;;;;;21.90;12.82;;;;;;;6.36;100.00;100478.88;4945089;28;20039;-80
2023/11/12 08:44:13;;;;;;;23.58;13.07;;;;;;;6.37;100.00;100477.00;4956070;28;20313;-78
2023/11/12 08:46:39;;;;;;;21.17;12.65;;;;;;;6.36;100.00;100481.53;4928187;29;20043;-78
2023/11/12 08:49:06;;;;;;;22.70;12.68;;;;;;;6.35;100.00;100484.44;4931073;28;20501;-78
2023/11/12 08:51:33;;;;;;;17.67;11.50;;;;;;;6.37;100.00;100482.31;4945976;28;20482;-78
2023/11/12 08:53:58;;;;;;;29.02;15.20;;;;;;;6.37;100.00;100482.31;4929136;28;20445;-79
2023/11/12 08:56:25;;;;;;;21.20;13.05;;;;;;;6.37;100.00;100490.31;4940788;28;20130;-79
2023/11/12 08:58:52;;;;;;;20.35;12.93;;;;;;;6.37;100.00;100490.31;4957153;28;20127;-79
2023/11/12 09:01:17;;;;;;;23.52;14.18;;;;;;;6.37;100.00;100487.66;4942242;28;20031;-79
2023/11/12 09:03:43;;;;;;;18.20;11.15;;;;;;;6.39;100.00;100485.56;4929088;28;20082;-78
2023/11/12 09:06:10;;;;;;;17.33;11.20;;;;;;;6.42;100.00;100491.19;4928617;29;20047;-78
2023/11/12 09:08:37;;;;;;;20.17;11.50;;;;;;;6.43;100.00;100492.78;4930445;28;20158;-78
2023/11/12 09:11:03;;;;;;;21.50;14.20;;;;;;;6.45;100.00;100497.88;4914408;28;20039;-79
2023/11/12 09:13:29;;;;;;;19.25;11.27;;;;;;;6.46;100.00;100496.81;4947987;28;20079;-79
2023/11/12 09:15:54;;;;;;;19.98;11.98;;;;;;;6.48;100.00;100500.81;4947156;28;20119;-79
2023/11/12 09:18:20;;;;;;;19.20;11.82;;;;;;;6.50;100.00;100508.56;4945747;28;20030;-76
2023/11/12 09:20:46;;;;;;;18.60;12.02;;;;;;;6.51;100.00;100507.53;4958039;28;20031;-76
2023/11/12 09:23:12;;;;;;;19.83;12.13;;;;;;;6.51;100.00;100512.84;4955132;28;20559;-78
2023/11/12 09:25:38;;;;;;;18.27;11.32;;;;;;;6.57;100.00;100511.84;4926167;29;20130;-78
2023/11/12 09:28:06;;;;;;;18.85;11.93;;;;;;;6.58;100.00;100513.47;4926601;28;20058;-76
2023/11/12 09:30:36;;;;;;;20.02;10.95;;;;;;;6.61;100.00;100520.94;4929084;29;20465;-79
2023/11/12 09:33:04;;;;;;;16.13;10.48;;;;;;;6.65;100.00;100518.59;4945781;28;20069;-78
2023/11/12 09:35:30;;;;;;;20.65;13.02;;;;;;;6.65;100.00;100519.41;4944057;28;20043;-77
2023/11/12 09:37:56;;;;;;;22.88;12.10;;;;;;;6.72;100.00;100521.88;4925466;29;20102;-76
2023/11/12 09:40:29;;;;;;;23.98;11.88;;;;;;;6.79;100.00;100520.63;4939784;28;20887;-76
2023/11/12 09:42:55;;;;;;;21.92;12.82;;;;;;;6.83;100.00;100516.38;4928697;28;20043;-77
2023/11/12 09:45:21;;;;;;;20.85;11.48;;;;;;;6.82;100.00;100516.63;4923561;29;20150;-76
2023/11/12 09:47:55;;;;;;;20.63;11.82;;;;;;;6.87;100.00;100513.25;4927762;29;20057;-77
2023/11/12 09:50:21;;;;;;;20.30;12.57;;;;;;;6.91;100.00;100514.34;4957665;28;20088;-76
2023/11/12 09:52:49;;;;;;;22.00;11.90;;;;;;;6.91;100.00;100519.66;4911986;28;20446;-76
2023/11/12 09:55:16;;;;;;;24.58;13.30;;;;;;;6.90;100.00;100518.84;4925467;29;20043;-76
2023/11/12 09:57:41;;;;;;;21.48;11.63;;;;;;;6.91;100.00;100514.34;4941715;28;20126;-76
2023/11/12 10:00:07;;;;;;;22.20;12.10;;;;;;;6.93;100.00;100509.59;4927347;29;20079;-76
2023/11/12 10:02:35;;;;;;;20.00;12.77;;;;;;;6.94;100.00;100516.50;4945086;28;20043;-76
2023/11/12 10:05:10;;;;;;;20.85;12.27;;;;;;;6.96;100.00;100512.53;4943072;28;20038;-76
2023/11/12 10:07:36;;;;;;;19.25;11.82;;;;;;;6.92;100.00;100511.44;4941589;28;20517;-77
2023/11/12 10:10:27;;;;;;;19.52;11.77;;;;;;;6.93;100.00;100504.25;4939819;28;20607;-77
2023/11/12 10:12:54;;;;;;;22.13;12.32;;;;;;;6.92;100.00;100500.00;4939388;28;20105;-75
2023/11/12 10:15:25;;;;;;;19.80;11.32;;;;;;;6.93;100.00;100501.59;4948364;28;20094;-78
2023/11/12 10:17:54;;;;;;;19.85;12.18;;;;;;;6.91;100.00;100503.69;4927693;29;20039;-77
2023/11/12 10:20:30;;;;;;;17.55;10.20;;;;;;;6.89;100.00;100503.13;4944762;28;20046;-76
2023/11/12 10:22:56;;;;;;;18.60;10.57;;;;;;;6.90;100.00;100512.72;4956796;28;20063;-77
2023/11/12 10:25:43;;;;;;;16.48;9.70;;;;;;;6.89;100.00;100516.44;4947819;28;20491;-77
2023/11/12 10:28:11;;;;;;;17.83;9.73;;;;;;;6.91;100.00;100517.00;4942775;28;20039;-77
2023/11/12 10:30:38;;;;;;;16.17;9.88;;;;;;;6.92;100.00;100531.94;4945300;28;20036;-77
2023/11/12 10:33:15;;;;;;;19.40;11.40;;;;;;;6.90;100.00;100529.50;4944319;28;20038;-77
2023/11/12 10:35:42;;;;;;;18.92;10.70;;;;;;;6.91;100.00;100527.63;4957989;28;20039;-76
2023/11/12 10:38:09;;;;;;;20.45;11.18;;;;;;;6.92;100.00;100526.63;4944978;28;20508;-77
2023/11/12 10:40:34;;;;;;;;;;;;;;;6.94;100.00;100535.16;4945679;28;20039;-76
2023/11/12 10:43:09;;;;;;;17.98;11.32;;;;;;;6.95;100.00;100528.75;4925645;28;19977;-77
2023/11/12 10:45:35;;;;;;;18.55;11.63;;;;;;;7.00;100.00;100518.16;4958748;28;20075;-76
2023/11/12 10:48:05;;;;;;;20.67;11.57;;;;;;;7.00;100.00;100523.50;4937988;28;20039;-77
2023/11/12 10:50:31;;;;;;;23.90;11.73;;;;;;;7.02;100.00;100527.50;4922662;29;20828;-75
2023/11/12 10:52:58;;;;;;;20.70;12.80;;;;;;;7.01;100.00;100520.56;4946416;28;20035;-77
2023/11/12 10:55:25;;;;;;;23.40;12.05;;;;;;;7.00;100.00;100523.50;4946414;28;20066;-76
2023/11/12 10:57:53;;;;;;;19.60;11.82;;;;;;;7.02;100.00;100518.72;4924425;29;20468;-77
2023/11/12 11:00:19;;;;;;;22.77;13.52;;;;;;;6.94;100.00;100525.28;4944145;28;20082;-77
2023/11/12 11:02:48;;;;;;;17.85;11.32;;;;;;;6.93;100.00;100523.69;4945958;28;20031;-75
2023/11/12 11:05:16;;;;;;;26.38;11.63;;;;;;;6.95;100.00;100526.09;4940671;28;20138;-75
2023/11/12 11:07:43;;;;;;;21.38;12.70;;;;;;;6.93;100.00;100521.03;4945080;28;20034;-77
2023/11/12 11:10:11;;;;;;;19.17;11.75;;;;;;;6.93;100.00;100528.22;4927716;29;20035;-77
2023/11/12 11:12:37;;;;;;;19.50;12.75;;;;;;;6.91;100.00;100520.50;4963289;28;20042;-78
2023/11/12 11:15:41;;;;;;;27.50;13.63;;;;;;;6.92;100.00;100529.28;4944677;28;20528;-78
2023/11/12 11:18:07;;;;;;;18.83;11.55;;;;;;;6.92;100.00;100523.94;4946939;28;20043;-77
2023/11/12 11:21:15;;;;;;;20.08;11.55;;;;;;;6.95;100.00;100536.75;4932042;28;20050;-76
2023/11/12 11:23:45;;;;;;;20.63;12.27;;;;;;;6.98;100.00;100525.63;4950427;28;20036;-77
2023/11/12 11:26:26;;;;;;;18.55;11.85;;;;;;;6.99;100.00;100535.22;4930432;28;20047;-78
2023/11/12 11:29:09;;;;;;;19.17;10.45;;;;;;;6.99;100.00;100532.53;4930017;28;20110;-76
2023/11/12 11:31:35;;;;;;;18.17;10.90;;;;;;;6.98;100.00;100530.94;4947165;28;20106;-76
2023/11/12 11:34:03;;;;;;;21.75;12.68;;;;;;;6.96;100.00;100530.38;4931556;28;20086;-75
2023/11/12 11:36:30;;;;;;;20.52;10.63;;;;;;;6.92;100.00;100529.28;4943526;28;20031;-78
2023/11/12 11:39:01;;;;;;;14.63;9.70;;;;;;;6.95;100.00;100523.44;4930260;29;20456;-78
2023/11/12 11:41:27;;;;;;;16.00;10.20;;;;;;;6.96;100.00;100517.06;4944532;28;20453;-78
2023/11/12 11:43:53;;;;;;;20.50;10.45;;;;;;;6.98;100.00;100525.63;4949429;28;20042;-78
2023/11/12 11:46:19;;;;;;;18.60;10.75;;;;;;;6.94;100.00;100514.66;4960752;28;20053;-77
2023/11/12 11:48:47;;;;;;;16.83;11.25;;;;;;;7.00;100.00;100523.50;4944218;28;20509;-78
2023/11/12 11:51:42;;;;;;;17.67;11.77;;;;;;;7.01;100.00;100519.78;4943339;28;20089;-77
2023/11/12 11:54:15;;;;;;;18.55;11.15;;;;;;;7.00;100.00;100523.50;4926852;28;20062;-77
2023/11/12 11:56:41;;;;;;;18.23;11.35;;;;;;;7.02;100.00;100518.72;4947697;28;20034;-77
2023/11/12 11:59:08;;;;;;;;;;;;;;;7.04;100.00;100522.72;4934789;28;20086;-77
2023/11/12 12:01:44;;;;;;;17.73;11.15;;;;;;;7.04;100.00;100519.25;4950387;28;19918;-77
2023/11/12 12:04:11;;;;;;;16.40;10.98;;;;;;;7.05;100.00;100524.34;4912183;29;20039;-77
2023/11/12 12:06:41;;;;;;;18.35;11.70;;;;;;;7.06;100.00;100517.97;4951452;28;20042;-79
2023/11/12 12:09:16;;;;;;;20.83;12.68;;;;;;;7.04;100.00;100513.94;4933680;28;20150;-76
2023/11/12 12:11:46;;;;;;;21.70;12.38;;;;;;;7.10;100.00;100529.72;4956415;28;20034;-77
2023/11/12 12:14:14;;;;;;;20.25;12.68;;;;;;;7.12;100.00;100524.16;4950142;28;20069;-77
2023/11/12 12:16:42;;;;;;;18.52;11.73;;;;;;;7.16;100.00;100519.91;4962380;28;20709;-76
2023/11/12 12:19:14;;;;;;;19.13;11.98;;;;;;;7.19;100.00;100527.41;4933694;28;20050;-76
2023/11/12 12:21:50;;;;;;;18.27;11.05;;;;;;;7.25;100.00;100521.09;4947498;28;20034;-75
2023/11/12 12:24:19;;;;;;;17.80;10.80;;;;;;;7.33;100.00;100522.47;4934010;28;20046;-76
2023/11/12 12:26:45;;;;;;;20.52;11.25;;;;;;;7.36;100.00;100520.09;4928340;29;20592;-77
2023/11/12 12:29:15;;;;;;;19.25;11.52;;;;;;;7.42;100.00;100520.94;4945993;28;20034;-76
2023/11/12 12:31:44;;;;;;;17.65;11.40;;;;;;;7.41;100.00;100522.00;4914502;29;20076;-77
2023/11/12 12:34:11;;;;;;;17.75;11.30;;;;;;;7.45;100.00;100515.13;4945258;28;20122;-77
2023/11/12 12:36:37;;;;;;;18.02;10.48;;;;;;;7.54;100.00;100512.78;4931095;29;20043;-76
2023/11/12 12:39:10;;;;;;;16.83;10.95;;;;;;;7.59;100.00;100518.97;4931230;28;20791;-76
2023/11/12 12:41:40;;;;;;;18.85;11.23;;;;;;;7.59;100.00;100512.84;4947177;28;20061;-76
2023/11/12 12:44:18;;;;;;;21.35;11.60;;;;;;;7.59;100.00;100510.97;4947526;28;20113;-77
2023/11/12 12:46:47;;;;;;;;;;;;;;;7.59;100.00;100513.63;4945586;28;20512;-77
2023/11/12 12:49:28;;;;;;;16.23;10.25;;;;;;;7.62;100.00;100514.97;4931503;28;19922;-77
2023/11/12 12:51:54;;;;;;;18.23;9.75;;;;;;;7.62;100.00;100514.97;4960978;28;20031;-76
2023/11/12 12:54:20;;;;;;;19.95;11.13;;;;;;;7.59;100.00;100521.63;4945518;28;20039;-76
2023/11/12 12:56:47;;;;;;;19.30;10.52;;;;;;;7.62;100.00;100521.13;4929346;28;20027;-77
2023/11/12 12:59:13;;;;;;;15.23;10.40;;;;;;;7.62;100.00;100520.31;4929313;28;20082;-77
2023/11/12 13:01:41;;;;;;;16.15;9.23;;;;;;;7.59;100.00;100520.84;4950145;28;20715;-76
2023/11/12 13:04:08;;;;;;;15.73;9.77;;;;;;;7.57;100.00;100521.06;4944918;23;20051;-71
2023/11/12 13:06:37;;;;;;;20.02;9.93;;;;;;;7.56;100.00;100527.47;4942733;28;20106;-72
2023/11/12 13:09:15;;;;;;;14.57;9.50;;;;;;;7.55;100.00;100519.72;4929891;29;20051;-72
2023/11/12 13:11:42;;;;;;;14.77;9.70;;;;;;;7.55;100.00;100520.53;4929946;29;20465;-72
2023/11/12 13:14:10;;;;;;;14.07;9.05;;;;;;;7.55;100.00;100522.38;4945305;28;20532;-72
2023/11/12 13:16:38;;;;;;;12.93;8.15;;;;;;;7.55;100.00;100525.84;4930578;29;20519;-73
2023/11/12 13:19:13;;;;;;;12.88;8.50;;;;;;;7.58;100.00;100529.88;4946053;28;20031;-72